Time;durP1;ratioP1;P1;durP2;ratioP2;P2;SDS_P1;SDS_P2;PMS_P1;PMS_P2;Temp;Humidity;BMP_temperature;BMP_pressure;BME280_temperature;BME280_humidity;BME280_pressure;Samples;Min_cycle;Max_cycle;Signal;HPM_P1;HPM_P2
2022/08/11 00:01:47;;;;;;;2.72;1.23;;;26.00;37.30;;;;;;5054790;28;20048;-40
2022/08/11 00:04:14;;;;;;;1.65;1.20;;;26.00;37.30;;;;;;5052879;28;20032;-40
2022/08/11 00:06:40;;;;;;;1.52;1.13;;;26.00;37.30;;;;;;5051103;28;20382;-40
2022/08/11 00:09:15;;;;;;;1.70;1.10;;;25.90;37.30;;;;;;5052789;28;20028;-40
2022/08/11 00:11:55;;;;;;;2.35;1.10;;;25.90;37.40;;;;;;5051410;28;20112;-40
2022/08/11 00:14:27;;;;;;;3.15;1.35;;;25.90;37.40;;;;;;5054162;28;20029;-39
2022/08/11 00:17:13;;;;;;;3.92;1.50;;;25.80;37.50;;;;;;5053131;28;20029;-40
2022/08/11 00:19:47;;;;;;;2.05;1.30;;;25.80;37.50;;;;;;5047231;28;20029;-40
2022/08/11 00:22:20;;;;;;;1.20;1.10;;;25.80;37.50;;;;;;5051995;28;20044;-40
2022/08/11 00:24:46;;;;;;;1.50;1.20;;;25.80;37.50;;;;;;5051202;28;20776;-40
2022/08/11 00:27:12;;;;;;;2.03;1.20;;;25.80;37.50;;;;;;5043438;28;20036;-40
2022/08/11 00:29:38;;;;;;;2.38;1.38;;;25.80;37.50;;;;;;5038239;28;20033;-41
2022/08/11 00:32:05;;;;;;;1.73;1.30;;;25.80;37.50;;;;;;5064500;28;20498;-40
2022/08/11 00:34:34;;;;;;;2.63;1.50;;;25.80;37.40;;;;;;5050433;28;20029;-40
2022/08/11 00:37:06;;;;;;;4.20;1.35;;;25.90;37.40;;;;;;5050696;28;20032;-40
2022/08/11 00:39:40;;;;;;;2.30;1.52;;;25.80;37.50;;;;;;5051498;28;20025;-40
2022/08/11 00:42:26;;;;;;;1.70;1.27;;;25.80;37.50;;;;;;5060085;28;20037;-40
2022/08/11 00:45:02;;;;;;;2.50;1.20;;;25.80;37.40;;;;;;5003232;28;20067;-40
2022/08/11 00:47:32;;;;;;;2.67;1.50;;;25.80;37.40;;;;;;5052006;28;20037;-45
2022/08/11 00:50:15;;;;;;;1.67;1.10;;;25.80;37.50;;;;;;5049151;28;20021;-40
2022/08/11 00:52:52;;;;;;;1.17;1.00;;;25.80;37.50;;;;;;5050375;28;20490;-40
2022/08/11 00:55:32;;;;;;;4.75;2.65;;;25.80;37.60;;;;;;5051400;28;20039;-40
2022/08/11 00:58:22;;;;;;;2.08;1.30;;;25.80;37.70;;;;;;5061368;28;20112;-40
2022/08/11 01:01:06;;;;;;;1.60;1.30;;;25.80;37.70;;;;;;5046082;28;20613;-39
2022/08/11 01:03:50;;;;;;;4.00;1.48;;;25.70;37.60;;;;;;5046739;28;20474;-40
2022/08/11 01:06:48;;;;;;;1.73;1.48;;;25.70;37.70;;;;;;5051094;28;20374;-40
2022/08/11 01:09:40;;;;;;;1.95;1.15;;;25.70;37.70;;;;;;5049463;28;20104;-40
2022/08/11 01:12:25;;;;;;;1.92;1.10;;;25.70;37.60;;;;;;5062583;28;20068;-40
2022/08/11 01:15:23;;;;;;;1.88;1.27;;;25.80;37.70;;;;;;5051309;28;20025;-40
2022/08/11 01:18:10;;;;;;;1.38;1.05;;;25.80;37.70;;;;;;4978459;28;20066;-40
2022/08/11 01:21:00;;;;;;;1.25;1.08;;;25.80;37.70;;;;;;5051458;28;20381;-40
2022/08/11 01:24:19;;;;;;;2.88;1.52;;;25.80;37.70;;;;;;5053000;28;20020;-43
2022/08/11 01:27:18;;;;;;;4.18;2.67;;;25.80;37.80;;;;;;5054975;28;20036;-40
2022/08/11 01:30:19;;;;;;;2.33;1.15;;;25.80;37.90;;;;;;5053898;28;20091;-40
2022/08/11 01:33:14;;;;;;;2.72;1.13;;;25.80;37.90;;;;;;5028250;28;20040;-40
2022/08/11 01:36:05;;;;;;;2.45;1.00;;;25.70;37.90;;;;;;5054020;28;20047;-42
2022/08/11 01:38:50;;;;;;;;;;;25.80;38.00;;;;;;5045503;28;20123;-38
2022/08/11 01:44:36;;;;;;;1.60;1.00;;;25.70;37.90;;;;;;5049023;28;20079;-42
2022/08/11 01:50:18;;;;;;;2.92;1.70;;;25.70;38.00;;;;;;5052915;28;20052;-38
2022/08/11 01:53:10;;;;;;;2.25;1.20;;;25.70;38.00;;;;;;5052321;28;20043;-38
2022/08/11 01:55:56;;;;;;;1.88;1.15;;;25.70;37.90;;;;;;5053022;28;20029;-38
2022/08/11 01:59:04;;;;;;;1.83;1.30;;;25.70;38.00;;;;;;5047672;28;20039;-38
2022/08/11 02:01:36;;;;;;;1.63;1.05;;;25.70;38.00;;;;;;5052944;28;20032;-45
2022/08/11 02:04:23;;;;;;;1.65;1.35;;;25.70;38.00;;;;;;5057039;28;20033;-38
2022/08/11 02:07:16;;;;;;;2.60;1.30;;;25.60;38.00;;;;;;5053645;28;20029;-38
2022/08/11 02:11:29;;;;;;;2.17;1.40;;;25.70;38.10;;;;;;5047632;28;20040;-38
2022/08/11 02:12:53;;;;;;;1.33;1.23;;;25.70;38.10;;;;;;5039975;28;20229;-38
2022/08/11 02:15:35;;;;;;;2.92;1.10;;;25.60;38.10;;;;;;5026501;28;20087;-38
2022/08/11 02:18:18;;;;;;;1.60;1.08;;;25.60;38.10;;;;;;5032849;28;20029;-38
2022/08/11 02:23:50;;;;;;;;;;;25.60;38.20;;;;;;5025773;28;20040;-39
2022/08/11 02:26:21;;;;;;;1.73;1.20;;;25.60;38.20;;;;;;5028196;28;20042;-38
2022/08/11 02:29:09;;;;;;;3.10;1.33;;;25.60;38.30;;;;;;5028935;28;20053;-38
2022/08/11 02:34:55;;;;;;;2.03;1.27;;;25.60;38.60;;;;;;5028166;28;20060;-38
2022/08/11 02:37:32;;;;;;;3.35;1.58;;;25.30;38.60;;;;;;5028139;28;20041;-40
2022/08/11 02:39:58;;;;;;;2.80;1.52;;;25.20;39.00;;;;;;5028889;28;20111;-40
2022/08/11 02:42:26;;;;;;;1.95;1.55;;;25.10;39.10;;;;;;5021197;28;20076;-40
2022/08/11 02:45:24;;;;;;;2.40;1.40;;;25.00;39.20;;;;;;5027153;28;20044;-40
2022/08/11 02:51:24;;;;;;;2.35;1.50;;;25.00;39.50;;;;;;5015358;28;20846;-40
2022/08/11 02:54:21;;;;;;;2.75;1.60;;;24.90;39.60;;;;;;5018506;28;20029;-41
2022/08/11 02:57:11;;;;;;;2.28;1.83;;;24.80;39.60;;;;;;5025016;28;20503;-46
2022/08/11 02:59:54;;;;;;;1.83;1.30;;;24.80;39.80;;;;;;5026563;28;20041;-40
2022/08/11 03:02:30;;;;;;;2.83;1.60;;;24.70;39.90;;;;;;5025514;28;20045;-41
2022/08/11 03:05:10;;;;;;;2.80;1.92;;;24.70;39.90;;;;;;5026560;28;20041;-40
2022/08/11 03:07:39;;;;;;;3.22;1.45;;;24.70;39.90;;;;;;5021896;28;20045;-42
2022/08/11 03:10:13;;;;;;;2.75;1.58;;;24.70;39.90;;;;;;5024130;28;20025;-40
2022/08/11 03:19:24;;;;;;;3.20;1.27;;;24.60;40.20;;;;;;5048078;28;20040;-40
2022/08/11 03:22:01;;;;;;;1.85;1.33;;;24.50;40.30;;;;;;5000575;28;20151;-40
2022/08/11 03:24:52;;;;;;;3.28;2.10;;;24.50;40.60;;;;;;5052857;28;20428;-40
2022/08/11 03:27:51;;;;;;;3.60;1.67;;;24.50;40.70;;;;;;5051507;28;20054;-40
2022/08/11 03:30:33;;;;;;;3.85;1.60;;;24.40;40.60;;;;;;5041267;28;20066;-46
2022/08/11 03:36:08;;;;;;;2.03;1.30;;;24.40;41.00;;;;;;5046172;28;20086;-40
2022/08/11 03:39:12;;;;;;;2.53;1.80;;;24.30;40.90;;;;;;5049606;28;20029;-47
2022/08/11 03:42:03;;;;;;;1.65;1.20;;;24.40;41.00;;;;;;5034481;28;20041;-40
2022/08/11 03:45:05;;;;;;;3.20;1.60;;;24.30;40.70;;;;;;5047420;28;20059;-40
2022/08/11 03:48:15;;;;;;;2.90;1.40;;;24.30;40.90;;;;;;5051271;28;20041;-43
2022/08/11 03:50:47;;;;;;;2.83;1.90;;;24.30;41.00;;;;;;5047424;28;20467;-40
2022/08/11 03:53:43;;;;;;;3.30;1.67;;;24.30;41.10;;;;;;5049673;28;20088;-40
2022/08/11 03:56:30;;;;;;;3.75;1.42;;;24.30;41.00;;;;;;5049928;28;20029;-40
2022/08/11 03:59:10;;;;;;;2.90;1.95;;;24.20;41.00;;;;;;5049981;28;20028;-40
2022/08/11 04:02:13;;;;;;;2.00;1.58;;;24.20;41.10;;;;;;5051919;28;20033;-41
2022/08/11 04:05:04;;;;;;;3.60;1.80;;;24.20;41.10;;;;;;5050017;28;20107;-41
2022/08/11 04:07:44;;;;;;;1.50;1.40;;;24.20;41.20;;;;;;5047902;28;20025;-40
2022/08/11 04:10:28;;;;;;;2.72;1.45;;;24.20;41.20;;;;;;5043874;28;20027;-40
2022/08/11 04:13:26;;;;;;;3.05;1.70;;;24.20;41.20;;;;;;5036125;28;20095;-40
2022/08/11 04:16:15;;;;;;;5.13;2.28;;;24.20;41.20;;;;;;5070864;28;20103;-39
2022/08/11 04:19:05;;;;;;;3.65;1.90;;;24.20;41.10;;;;;;5070487;28;20039;-40
2022/08/11 04:22:01;;;;;;;4.18;1.75;;;24.20;41.10;;;;;;5068580;28;20047;-40
2022/08/11 04:24:53;;;;;;;2.92;1.80;;;24.20;41.10;;;;;;5068120;28;20059;-39
2022/08/11 04:27:36;;;;;;;4.97;1.88;;;24.20;41.10;;;;;;5071001;28;20066;-40
2022/08/11 04:30:07;;;;;;;4.38;2.08;;;24.20;41.10;;;;;;5071259;28;20381;-40
2022/08/11 04:32:58;;;;;;;2.38;1.63;;;24.20;41.20;;;;;;5071048;28;20431;-45
2022/08/11 04:36:01;;;;;;;4.45;1.83;;;24.20;41.10;;;;;;5070962;28;20615;-40
2022/08/11 04:39:08;;;;;;;3.33;1.67;;;24.20;41.30;;;;;;5047603;28;20067;-39
2022/08/11 04:44:54;;;;;;;2.80;1.95;;;24.10;41.30;;;;;;5064403;28;20385;-39
2022/08/11 05:02:38;;;;;;;2.25;1.67;;;24.00;41.80;;;;;;5074916;28;20086;-40
2022/08/11 05:05:30;;;;;;;4.82;1.80;;;24.00;41.80;;;;;;5066704;28;20020;-39
2022/08/11 05:08:18;;;;;;;2.80;1.52;;;24.00;41.90;;;;;;5073606;28;20485;-40
2022/08/11 05:11:06;;;;;;;3.95;2.10;;;24.00;42.00;;;;;;5077599;28;20055;-39
2022/08/11 05:36:49;;;;;;;5.30;2.30;;;24.00;42.60;;;;;;5052397;28;20082;-45
2022/08/11 05:56:20;;;;;;;4.53;1.83;;;23.70;43.00;;;;;;5055822;28;20028;-40
2022/08/11 05:58:49;;;;;;;3.30;1.75;;;23.70;43.00;;;;;;5055544;28;20037;-40
2022/08/11 06:01:31;;;;;;;2.92;1.83;;;23.70;43.50;;;;;;5050385;28;20368;-39
2022/08/11 06:04:13;;;;;;;6.85;2.42;;;23.70;43.00;;;;;;5051191;28;20449;-39
2022/08/11 06:06:50;;;;;;;4.47;1.90;;;23.70;43.10;;;;;;5057964;28;20090;-44
2022/08/11 06:09:40;;;;;;;2.38;1.95;;;23.60;43.20;;;;;;5068871;28;20398;-40
2022/08/11 06:12:17;;;;;;;3.97;2.03;;;23.80;43.30;;;;;;5034989;28;20099;-40
2022/08/11 06:14:44;;;;;;;3.13;2.28;;;23.90;43.30;;;;;;5065381;28;20024;-40
2022/08/11 06:17:12;;;;;;;2.78;1.92;;;23.90;43.10;;;;;;5053804;28;20056;-40
2022/08/11 06:19:40;;;;;;;4.80;2.22;;;23.90;43.00;;;;;;5048653;28;20107;-43
2022/08/11 06:22:10;;;;;;;4.47;2.72;;;23.90;43.00;;;;;;5053989;28;20132;-40
2022/08/11 06:24:49;;;;;;;5.05;1.92;;;24.00;43.10;;;;;;5048997;28;20021;-40
2022/08/11 06:27:20;;;;;;;4.30;2.30;;;24.00;42.90;;;;;;5053510;28;20466;-40
2022/08/11 06:29:49;;;;;;;6.27;1.97;;;24.20;42.60;;;;;;5045871;28;20060;-40
2022/08/11 06:32:16;;;;;;;4.07;2.35;;;24.20;42.60;;;;;;5065731;28;20029;-40
2022/08/11 06:35:20;;;;;;;3.05;1.90;;;24.20;42.60;;;;;;5060658;28;20029;-41
2022/08/11 06:37:55;;;;;;;9.15;2.35;;;24.20;42.80;;;;;;5050772;28;20123;-40
2022/08/11 06:41:29;;;;;;;3.53;1.90;;;24.20;42.50;;;;;;5047709;28;20493;-40
2022/08/11 06:44:04;;;;;;;3.42;1.90;;;24.10;42.50;;;;;;5049501;28;20045;-39
2022/08/11 06:46:37;;;;;;;4.75;2.25;;;24.20;42.50;;;;;;5052672;28;20497;-40
2022/08/11 06:52:03;;;;;;;2.53;1.75;;;24.20;42.50;;;;;;5051817;28;20048;-40
2022/08/11 06:54:32;;;;;;;4.13;2.00;;;24.20;42.40;;;;;;5052554;28;20029;-41
2022/08/11 07:02:52;;;;;;;4.18;1.90;;;24.20;42.60;;;;;;5063563;28;20139;-40
2022/08/11 07:05:27;;;;;;;2.00;1.65;;;24.30;42.60;;;;;;5057797;28;20028;-40
2022/08/11 07:16:48;;;;;;;3.70;2.08;;;24.30;42.60;;;;;;5060671;28;20035;-40
2022/08/11 07:30:39;;;;;;;3.53;1.80;;;24.50;42.50;;;;;;5056432;28;20390;-40
2022/08/11 07:33:06;;;;;;;6.00;1.67;;;24.50;42.40;;;;;;5057646;28;20028;-40
2022/08/11 07:35:47;;;;;;;3.25;1.75;;;24.50;42.40;;;;;;5051791;28;20083;-43
2022/08/11 07:38:20;;;;;;;10.60;1.90;;;24.60;42.40;;;;;;5052001;28;20593;-40
2022/08/11 07:40:46;;;;;;;3.22;2.00;;;24.60;42.50;;;;;;5051703;28;20025;-40
2022/08/11 07:43:13;;;;;;;5.75;1.90;;;24.60;42.50;;;;;;5053422;28;20123;-40
2022/08/11 07:54:04;;;;;;;4.15;1.88;;;24.70;42.20;;;;;;5057787;28;20035;-43
2022/08/11 07:56:34;;;;;;;4.22;1.88;;;24.70;42.30;;;;;;5055503;28;20079;-40
2022/08/11 08:18:22;;;;;;;3.55;1.80;;;25.20;42.20;;;;;;5050755;28;20055;-40
2022/08/11 08:20:49;;;;;;;3.05;1.67;;;25.20;42.10;;;;;;5041594;28;20028;-40
2022/08/11 08:23:16;;;;;;;4.00;1.98;;;25.30;42.10;;;;;;5054023;28;20036;-40
2022/08/11 08:25:44;;;;;;;4.05;1.80;;;25.30;42.10;;;;;;5055355;28;20112;-46
2022/08/11 08:28:14;;;;;;;2.05;1.67;;;25.30;42.00;;;;;;5054554;28;20086;-40
2022/08/11 08:30:49;;;;;;;4.47;1.60;;;25.30;42.00;;;;;;5042733;28;20021;-48
2022/08/11 08:33:23;;;;;;;4.90;1.90;;;25.30;42.50;;;;;;5056004;28;20512;-40
2022/08/11 08:36:10;;;;;;;2.65;1.65;;;25.40;42.00;;;;;;5055025;28;20509;-40
2022/08/11 08:38:56;;;;;;;4.60;2.00;;;25.40;41.90;;;;;;5051596;28;20033;-43
2022/08/11 08:41:27;;;;;;;3.30;1.63;;;25.40;41.80;;;;;;5050693;28;20068;-40
2022/08/11 08:43:57;;;;;;;3.33;1.88;;;25.40;41.80;;;;;;5048934;28;20029;-40
2022/08/11 08:46:33;;;;;;;2.70;1.83;;;25.40;41.50;;;;;;5057693;28;20017;-39
2022/08/11 08:49:01;;;;;;;2.53;1.50;;;25.40;41.50;;;;;;5048518;28;20134;-40
2022/08/11 08:51:34;;;;;;;2.85;1.52;;;25.50;41.60;;;;;;5050391;28;20029;-40
2022/08/11 08:54:21;;;;;;;3.47;1.67;;;25.50;41.50;;;;;;5049460;28;20647;-40
2022/08/11 08:56:51;;;;;;;4.53;1.77;;;25.50;41.40;;;;;;5047057;28;20079;-41
2022/08/11 08:59:21;;;;;;;2.25;1.60;;;25.50;41.50;;;;;;5054517;28;20024;-39
2022/08/11 09:01:56;;;;;;;3.85;1.52;;;25.50;41.60;;;;;;5054835;28;20560;-40
2022/08/11 09:04:22;;;;;;;1.40;1.20;;;25.50;41.50;;;;;;5051790;28;20090;-40
2022/08/11 09:06:49;;;;;;;4.25;1.63;;;25.60;41.20;;;;;;5049755;28;20056;-40
2022/08/11 09:09:15;;;;;;;1.92;1.35;;;25.50;41.00;;;;;;5050834;28;20131;-39
2022/08/11 09:11:49;;;;;;;3.95;1.77;;;25.60;41.10;;;;;;5050412;28;20029;-46
2022/08/11 09:17:21;;;;;;;10.52;1.63;;;25.60;40.90;;;;;;5041632;28;20049;-43
2022/08/11 09:19:48;;;;;;;2.47;1.60;;;25.60;41.00;;;;;;5051606;28;20033;-41
2022/08/11 09:27:51;;;;;;;3.85;1.65;;;25.60;41.20;;;;;;5049221;28;20067;-40
2022/08/11 09:30:19;;;;;;;1.77;1.20;;;25.70;41.30;;;;;;5059609;28;20024;-40
2022/08/11 09:32:45;;;;;;;1.65;1.27;;;25.70;41.30;;;;;;5053638;28;20036;-45
2022/08/11 09:35:11;;;;;;;2.45;1.60;;;25.70;41.30;;;;;;5050167;28;20036;-40
2022/08/11 09:40:32;;;;;;;2.28;1.48;;;25.70;41.20;;;;;;5053992;28;20036;-38
2022/08/11 09:45:50;;;;;;;1.98;1.50;;;25.70;41.10;;;;;;5050408;28;20032;-47
2022/08/11 09:48:21;;;;;;;2.47;1.38;;;25.80;41.10;;;;;;5036031;28;20464;-40
2022/08/11 09:50:49;;;;;;;2.40;1.10;;;25.80;41.10;;;;;;5048380;28;20025;-41
2022/08/11 09:53:16;;;;;;;1.95;1.20;;;25.80;41.10;;;;;;5051978;28;20418;-40
2022/08/11 09:55:47;;;;;;;1.95;1.48;;;25.80;41.10;;;;;;5058197;28;20037;-44
2022/08/11 09:58:15;;;;;;;2.45;1.42;;;25.80;41.20;;;;;;5050858;28;20033;-41
2022/08/11 10:00:42;;;;;;;3.55;1.70;;;25.80;41.10;;;;;;5035625;28;20035;-40
2022/08/11 10:03:21;;;;;;;2.13;1.40;;;25.80;41.00;;;;;;5058641;28;20094;-39
2022/08/11 10:08:41;;;;;;;2.83;1.58;;;25.80;41.00;;;;;;5055332;28;20029;-41
2022/08/11 10:11:14;;;;;;;1.73;1.30;;;25.80;41.00;;;;;;5052954;28;20033;-41
2022/08/11 10:16:34;;;;;;;1.83;1.45;;;25.80;40.90;;;;;;5065655;28;20035;-39
2022/08/11 10:19:03;;;;;;;3.70;2.17;;;25.80;41.00;;;;;;5057457;28;20132;-40
2022/08/11 10:26:48;;;;;;;2.75;1.60;;;25.80;40.90;;;;;;5053671;28;20039;-38
2022/08/11 10:27:16;;;;;;;2.13;1.60;;;25.80;41.80;;;;;;5059761;28;20407;-39
2022/08/11 10:35:15;;;;;;;2.47;1.30;;;26.00;41.90;;;;;;5051083;28;20071;-39
2022/08/11 10:37:43;;;;;;;2.22;1.50;;;26.00;41.70;;;;;;5052376;28;20025;-40
2022/08/11 10:40:17;;;;;;;3.85;1.63;;;26.10;41.70;;;;;;5060251;28;20051;-39
2022/08/11 10:43:01;;;;;;;1.98;1.35;;;26.10;41.70;;;;;;5052946;28;20108;-39
2022/08/11 10:48:20;;;;;;;2.95;1.40;;;26.20;42.00;;;;;;5056752;28;20444;-40
2022/08/11 10:59:09;;;;;;;2.03;1.58;;;26.40;43.50;;;;;;5052701;28;20035;-39
2022/08/11 11:01:41;;;;;;;2.83;1.80;;;26.40;43.20;;;;;;5057762;28;20094;-41
2022/08/11 11:04:16;;;;;;;2.75;1.48;;;26.40;43.00;;;;;;5052364;28;20029;-41
2022/08/11 11:06:50;;;;;;;2.47;1.60;;;26.40;42.80;;;;;;5054446;28;20617;-39
2022/08/11 11:09:29;;;;;;;2.80;1.55;;;26.40;42.80;;;;;;5059527;28;20035;-39
2022/08/11 11:20:22;;;;;;;1.92;1.30;;;26.30;42.60;;;;;;5055530;28;20397;-40
2022/08/11 11:22:53;;;;;;;2.47;1.40;;;26.30;42.60;;;;;;5051465;28;20028;-42
2022/08/11 11:25:42;;;;;;;3.65;1.30;;;26.30;42.70;;;;;;5053130;28;20060;-41
2022/08/11 11:28:24;;;;;;;1.27;1.00;;;26.30;41.50;;;;;;5030802;28;20578;-40
2022/08/11 11:31:08;;;;;;;1.65;1.30;;;26.30;42.60;;;;;;5052855;28;20055;-41
2022/08/11 11:33:58;;;;;;;2.10;1.35;;;26.30;42.40;;;;;;5035633;28;20032;-40
2022/08/11 11:36:40;;;;;;;1.58;1.48;;;26.30;42.50;;;;;;5050628;28;20099;-39
2022/08/11 11:39:07;;;;;;;3.65;1.40;;;26.30;42.50;;;;;;5039301;28;20072;-39
2022/08/11 11:41:34;;;;;;;1.40;1.23;;;26.30;42.30;;;;;;5053499;28;20537;-39
2022/08/11 11:44:00;;;;;;;2.22;1.42;;;26.30;42.10;;;;;;5052065;28;20117;-39
2022/08/11 11:46:28;;;;;;;1.50;1.38;;;26.30;41.90;;;;;;5051348;28;20543;-41
2022/08/11 11:48:55;;;;;;;1.40;1.20;;;26.30;42.30;;;;;;5050595;28;20363;-39
2022/08/11 11:51:22;;;;;;;2.22;1.20;;;26.30;42.20;;;;;;5051715;28;20028;-40
2022/08/11 11:53:48;;;;;;;3.10;1.55;;;26.30;42.30;;;;;;5051884;28;20048;-44
2022/08/11 11:56:15;;;;;;;1.83;1.25;;;26.30;42.20;;;;;;5059102;28;20032;-40
2022/08/11 12:01:27;;;;;;;2.33;1.30;;;26.30;41.30;;;;;;5058359;28;20449;-41
2022/08/11 12:03:56;;;;;;;2.63;1.30;;;26.20;41.20;;;;;;5049803;28;20494;-41
2022/08/11 12:06:24;;;;;;;1.15;1.05;;;26.20;41.80;;;;;;5051580;28;20021;-43
2022/08/11 12:08:52;;;;;;;2.13;1.30;;;26.20;42.00;;;;;;5054585;28;20047;-43
2022/08/11 12:14:07;;;;;;;2.10;1.05;;;26.20;42.00;;;;;;5030941;28;20141;-40
2022/08/11 12:16:35;;;;;;;1.40;1.08;;;26.20;41.90;;;;;;5028084;28;20025;-39
2022/08/11 12:19:12;;;;;;;1.55;1.20;;;26.20;41.40;;;;;;5029720;28;20470;-40
2022/08/11 12:27:19;;;;;;;2.00;1.40;;;26.20;41.50;;;;;;5029726;28;20105;-39
2022/08/11 12:27:20;;;;;;;2.17;1.30;;;26.20;41.80;;;;;;5029544;28;20099;-39
2022/08/11 12:30:07;;;;;;;1.55;1.02;;;26.20;41.40;;;;;;5024357;28;20045;-40
2022/08/11 12:32:36;;;;;;;1.40;1.15;;;26.20;41.20;;;;;;5027587;28;20029;-41
2022/08/11 12:35:04;;;;;;;1.63;1.10;;;26.20;41.60;;;;;;5029686;28;20036;-41
2022/08/11 12:37:33;;;;;;;1.30;1.20;;;26.20;41.60;;;;;;5031051;28;20053;-39
2022/08/11 12:45:33;;;;;;;2.35;1.00;;;26.20;41.30;;;;;;5026941;28;20036;-41
2022/08/11 12:54:06;;;;;;;1.10;1.00;;;26.20;41.20;;;;;;5020293;28;20036;-40
2022/08/11 13:04:58;;;;;;;1.52;1.23;;;26.20;41.60;;;;;;5029086;28;20399;-38
2022/08/11 13:07:29;;;;;;;2.03;1.25;;;26.20;41.70;;;;;;5025461;28;20045;-40
2022/08/11 13:09:56;;;;;;;2.40;0.95;;;26.20;41.40;;;;;;5025692;28;20041;-39
2022/08/11 13:15:23;;;;;;;1.30;1.10;;;26.20;40.90;;;;;;5055578;28;20593;-39
2022/08/11 13:17:52;;;;;;;2.83;1.08;;;26.20;41.50;;;;;;5055393;28;20029;-42
2022/08/11 13:20:23;;;;;;;1.63;1.25;;;26.20;41.20;;;;;;5055860;28;20493;-39
2022/08/11 13:22:51;;;;;;;1.50;1.20;;;26.20;41.20;;;;;;5054167;28;20092;-39
2022/08/11 13:25:20;;;;;;;1.30;0.98;;;26.20;41.20;;;;;;5055800;28;20021;-40
2022/08/11 13:27:48;;;;;;;1.10;1.00;;;26.20;41.00;;;;;;5053865;28;20487;-40
2022/08/11 13:33:00;;;;;;;2.10;1.33;;;26.20;41.00;;;;;;5058090;28;20043;-40
2022/08/11 13:35:27;;;;;;;1.40;1.13;;;26.20;41.10;;;;;;5055829;28;20032;-40
2022/08/11 13:37:55;;;;;;;1.67;1.20;;;26.20;41.00;;;;;;5055348;28;20029;-43
2022/08/11 13:40:21;;;;;;;1.27;1.00;;;26.20;41.30;;;;;;5060489;28;20443;-40
2022/08/11 13:42:49;;;;;;;1.10;0.88;;;26.20;41.10;;;;;;5042102;28;20116;-41
2022/08/11 13:45:16;;;;;;;1.10;1.00;;;26.30;41.00;;;;;;5051048;28;20029;-40
2022/08/11 13:47:43;;;;;;;2.17;1.10;;;26.30;40.90;;;;;;5055173;28;20120;-41
2022/08/11 13:50:12;;;;;;;1.58;1.00;;;26.30;41.00;;;;;;5056787;28;20036;-41
2022/08/11 13:52:40;;;;;;;1.85;1.33;;;26.30;41.10;;;;;;5041321;28;20021;-40
2022/08/11 13:55:20;;;;;;;1.65;1.10;;;26.20;40.90;;;;;;5042276;28;20502;-43
2022/08/11 13:57:48;;;;;;;1.55;1.15;;;26.20;40.70;;;;;;5053188;28;20037;-40
2022/08/11 14:00:14;;;;;;;1.55;1.10;;;26.30;41.00;;;;;;5051413;28;20056;-41
2022/08/11 14:02:47;;;;;;;1.20;1.10;;;26.30;41.20;;;;;;5054586;28;20355;-40
2022/08/11 14:05:16;;;;;;;0.90;0.80;;;26.30;40.70;;;;;;5068459;28;20107;-41
2022/08/11 14:07:52;;;;;;;2.75;1.10;;;26.30;41.30;;;;;;5055441;28;20028;-40
2022/08/11 14:10:21;;;;;;;0.98;0.88;;;26.30;41.60;;;;;;5050146;28;20050;-40
2022/08/11 14:15:45;;;;;;;1.15;1.05;;;26.30;42.10;;;;;;5058392;28;20031;-39
2022/08/11 14:18:17;;;;;;;1.73;1.30;;;26.30;42.10;;;;;;5055056;28;20112;-39
2022/08/11 14:23:37;;;;;;;2.13;1.33;;;26.30;42.30;;;;;;5061491;28;20032;-42
2022/08/11 14:28:49;;;;;;;1.65;1.00;;;26.30;42.50;;;;;;5049907;28;20513;-40
2022/08/11 14:31:16;;;;;;;1.63;0.80;;;26.30;42.70;;;;;;5050679;28;20258;-41
2022/08/11 14:33:43;;;;;;;1.48;1.00;;;26.30;42.80;;;;;;5056248;28;20037;-43
2022/08/11 14:36:10;;;;;;;1.10;1.00;;;26.30;43.50;;;;;;5056279;28;20375;-40
2022/08/11 14:38:38;;;;;;;1.23;1.00;;;26.30;42.20;;;;;;5058211;28;20482;-39
2022/08/11 14:49:21;;;;;;;5.22;2.45;;;26.40;41.60;;;;;;5052698;28;20102;-39
2022/08/11 14:51:47;;;;;;;1.55;1.10;;;26.40;42.10;;;;;;5058125;28;20091;-39
2022/08/11 14:56:59;;;;;;;3.63;1.13;;;26.40;42.00;;;;;;5054826;28;20079;-40
2022/08/11 14:59:25;;;;;;;1.25;0.90;;;26.40;41.60;;;;;;5046637;28;20041;-40
2022/08/11 15:04:35;;;;;;;1.75;0.98;;;26.40;41.80;;;;;;5050570;28;20521;-39
2022/08/11 15:07:01;;;;;;;1.13;0.90;;;26.40;41.80;;;;;;5049140;28;20037;-42
2022/08/11 15:09:27;;;;;;;1.00;0.80;;;26.40;41.90;;;;;;5052775;28;20041;-39
2022/08/11 15:12:08;;;;;;;1.67;1.08;;;26.40;41.80;;;;;;5058194;28;20030;-45
2022/08/11 15:17:21;;;;;;;1.02;0.77;;;26.40;42.60;;;;;;5024562;28;20103;-39
2022/08/11 15:25:18;;;;;;;1.15;1.00;;;26.40;42.20;;;;;;5023432;28;20628;-40
2022/08/11 15:39:15;;;;;;;2.13;0.93;;;26.40;42.60;;;;;;5009520;28;20049;-40
2022/08/11 15:47:27;;;;;;;1.83;1.15;;;26.40;42.20;;;;;;4991064;28;20124;-41
2022/08/11 15:49:57;;;;;;;2.97;1.20;;;26.40;42.80;;;;;;5027391;28;20034;-40
2022/08/11 15:52:31;;;;;;;1.45;1.10;;;26.40;42.90;;;;;;5030115;28;20060;-40
2022/08/11 15:55:01;;;;;;;1.00;0.90;;;26.40;42.60;;;;;;5009552;28;20079;-43
2022/08/11 16:05:46;;;;;;;0.93;0.90;;;26.50;43.00;;;;;;5024839;28;20040;-40
2022/08/11 16:08:15;;;;;;;1.40;0.98;;;26.50;42.90;;;;;;5031482;28;20037;-42
2022/08/11 16:10:42;;;;;;;2.15;0.80;;;26.50;42.80;;;;;;5024682;28;20078;-45
2022/08/11 16:18:39;;;;;;;1.15;0.90;;;26.50;42.60;;;;;;5051650;28;20059;-40
2022/08/11 16:21:11;;;;;;;1.55;1.15;;;26.50;42.60;;;;;;5050462;28;20025;-43
2022/08/11 16:23:41;;;;;;;1.60;0.90;;;26.50;42.80;;;;;;5050557;28;20533;-42
2022/08/11 16:26:08;;;;;;;9.95;2.00;;;26.50;42.00;;;;;;5049052;28;20028;-41
2022/08/11 16:28:37;;;;;;;3.03;1.02;;;26.50;42.50;;;;;;5026723;28;20398;-41
2022/08/11 16:31:09;;;;;;;1.75;1.20;;;26.60;41.80;;;;;;5052018;28;20021;-40
2022/08/11 16:33:36;;;;;;;2.47;1.00;;;26.60;41.60;;;;;;5052265;28;20028;-42
2022/08/11 16:38:49;;;;;;;2.58;1.30;;;26.60;41.20;;;;;;5047342;28;20540;-44
2022/08/11 16:46:58;;;;;;;3.42;1.20;;;26.70;40.70;;;;;;5050125;28;20033;-40
2022/08/11 16:47:00;;;;;;;1.85;1.08;;;26.70;40.00;;;;;;5046514;28;20449;-44
2022/08/11 16:49:31;;;;;;;2.90;1.20;;;26.70;39.50;;;;;;5047571;28;20394;-43
2022/08/11 16:52:02;;;;;;;5.00;1.65;;;26.70;39.40;;;;;;5046781;28;20037;-45
2022/08/11 16:54:28;;;;;;;3.38;1.55;;;26.70;39.90;;;;;;5048197;28;20017;-40
2022/08/11 16:56:55;;;;;;;7.18;1.75;;;26.70;39.70;;;;;;5048737;28;20043;-40
2022/08/11 16:59:34;;;;;;;5.05;1.50;;;26.70;39.60;;;;;;5047685;28;20024;-41
2022/08/11 17:13:46;;;;;;;3.47;1.20;;;26.70;38.60;;;;;;5026326;28;20037;-40
2022/08/11 17:16:14;;;;;;;2.35;0.98;;;26.70;38.40;;;;;;5049740;28;20477;-40
2022/08/11 17:19:01;;;;;;;2.35;1.23;;;26.70;38.50;;;;;;5045425;28;20088;-40
2022/08/11 17:21:32;;;;;;;2.08;1.27;;;26.70;38.20;;;;;;5050300;28;20032;-40
2022/08/11 17:24:02;;;;;;;2.47;0.93;;;26.70;38.00;;;;;;5054303;28;20108;-44
2022/08/11 17:29:23;;;;;;;4.27;1.47;;;26.70;38.30;;;;;;5060767;28;20151;-40
2022/08/11 17:37:20;;;;;;;1.60;1.00;;;26.70;39.10;;;;;;5049657;28;20707;-40
2022/08/11 17:39:47;;;;;;;2.67;1.20;;;26.60;39.00;;;;;;5032742;28;20390;-40
2022/08/11 17:50:31;;;;;;;1.58;1.10;;;26.60;38.70;;;;;;5051011;28;20032;-40
2022/08/11 18:01:15;;;;;;;1.88;1.10;;;26.60;38.20;;;;;;5051282;28;20622;-40
2022/08/11 18:03:42;;;;;;;3.20;1.50;;;26.60;38.10;;;;;;5054249;28;20051;-40
2022/08/11 18:06:10;;;;;;;2.38;1.13;;;26.60;38.10;;;;;;5053450;28;20028;-40
